Airfield :
LOGIN :

Register | Disclaimer

   EN    FR    IT 

 










Legend :    VFR   Marginal VFR   IFR   Intensive IFR   Very Intensive IFR
Visi :
Ceiling :
>= 8 km
>= 3000ft
5 to 8 km
1000 to 3000 ft
1500m to 5 km
500 to 1000 ft
800 to 1500m
200 to 500 ft
< 800m
< 200 ft
Symbols :   Thunderstorms  Fog  Heavy snow  Heavy precipitations  Wind > 20 kt
SIGMETs :     Misc.  Thunderstorms  Icing  Turbulence  Mountain Waves  Volcanic Ashes







- Airport Elevation : 147 ft
- IATA code : DUS


EDDL - Düsseldorf Int.

CURRENT METAR :
  • 160750Z 16013KT 9999 OVC016 M00/M03 Q1010 R05R/290294 R05L/290294 BECMG BKN009

EXPIRED METARs :
  • 160720Z 15015KT 9999 SCT011 OVC020 M00/M03 Q1010 R05R/290294 R05L/290294 BECMG BKN009
  • 160650Z 15015KT 9999 SCT011 OVC020 M01/M03 Q1010 R05R/290294 R05L/290294 BECMG BKN009
  • 160620Z 16014KT 9999 SCT011 OVC020 M01/M03 Q1010 R05R/290294 R05L/290294 BECMG BKN009
  • 160550Z 16015KT 8000 -SN SCT011 BKN023 M01/M03 Q1010 R05R/290294 R05L/290294 BECMG BKN009
  • 160520Z 15017KT 5000 -SN SCT011 BKN023 M01/M03 Q1010 R05R/290294 R05L/290294 TEMPO 3500 BKN009

TAF TAF EDDL
Valid from the 16 at 06:00 until the 17 at 12:00 UTC


160500Z 1606/1712 15013KT 6000 SCT010 BKN020
PROB30
TEMPO 1606/1608 15015G25KT 2000 -FZRASN BKN007
TEMPO 1608/1612 3000 -SNRA BR BKN007
BECMG 1612/1615 18008KT
TEMPO 1612/1621 4000 BR BKN007
PROB30
TEMPO 1709/1711 RA
No reported NOTAMs for that airfield.
4 SIGMETs reported for the Langen FIR (EDGG) :
 
Severe icing
EDGG SIGMET 9 VALID 160730/161000 EDZF
EDGG LANGEN FIR SEV ICE FCST NE OF LINE N5215 E00715 - N4830 E00930 FL100/140 MOV NE 10KT NC=
Severe icing with freezing rain
EDGG SIGMET 8 VALID 160705/160900 EDZF
EDGG LANGEN FIR SEV ICE (FZRA) FCST W OF LINE N5215 E00730 - N4750 E00930 SFC/FL080 MOV E NC=
SIGMET 6  cancelation
EDGG SIGMET 7 VALID 160704/160900 EDZF
EDGG LANGEN FIR CNL SIGMET 6 160700/160900=
SIGMET 6  CANCELED :
Severe icing with freezing rain
EDGG SIGMET 6 VALID 160700/160900 EDZF
EDGG LANGEN FIR SEV ICE (FZRA) FCST W OF LINE N5215 E00730 - N4750 E00930 TOP FL080 MOV E NC=



MET'MAP, your aeronautical weather chart ! - Copyright ORBIFLY December 2007 - Disclaimer

ORBIFLY MET'MAP TEAM :

Programming & Development : Alexandra Zaïnal
Concept & Development : Baudouin d'Aumeries
Co-Development & Prog : Marc-Olivier Méhu
Technical & hardware support : Manuel Goepfert

Contact : metmap@orbifly.com




SOURCES & CREDITS :

   NOAA